createdAt,value
2023-04-11T00:02:14.313Z,80.10
2023-04-11T00:04:42.045Z,80.40
2023-04-11T00:07:09.686Z,80.00
2023-04-11T00:09:37.460Z,79.90
2023-04-11T00:12:05.181Z,80.10
2023-04-11T00:14:34.377Z,79.80
2023-04-11T00:17:01.942Z,79.90
2023-04-11T00:19:30.734Z,80.40
2023-04-11T00:21:58.402Z,80.60
2023-04-11T00:24:27.207Z,80.40
2023-04-11T00:26:54.929Z,80.80
2023-04-11T00:29:22.489Z,80.90
2023-04-11T00:31:50.094Z,81.60
2023-04-11T00:34:18.450Z,81.20
2023-04-11T00:36:47.098Z,82.60
2023-04-11T00:39:18.817Z,82.00
2023-04-11T00:41:47.074Z,82.30
2023-04-11T00:44:15.436Z,81.90
2023-04-11T00:46:46.009Z,81.80
2023-04-11T00:49:13.868Z,82.40
2023-04-11T00:51:41.329Z,82.10
2023-04-11T00:54:10.381Z,81.40
2023-04-11T00:56:38.207Z,81.40
2023-04-11T00:59:06.518Z,81.70
2023-04-11T01:01:36.614Z,80.90
2023-04-11T01:04:05.728Z,82.00
2023-04-11T01:06:33.733Z,81.60
2023-04-11T01:09:01.366Z,81.70
2023-04-11T01:11:29.408Z,82.20
2023-04-11T01:13:56.974Z,82.60
2023-04-11T01:16:24.708Z,82.50
2023-04-11T01:18:52.227Z,81.80
2023-04-11T01:21:20.857Z,81.60
2023-04-11T01:23:52.683Z,82.70
2023-04-11T01:26:20.847Z,82.40
2023-04-11T01:28:48.453Z,82.30
2023-04-11T01:31:16.271Z,81.80
2023-04-11T01:33:43.949Z,82.10
2023-04-11T01:36:12.431Z,80.80
2023-04-11T01:38:39.985Z,80.40
2023-04-11T01:41:09.914Z,80.30
2023-04-11T01:43:37.947Z,81.00
2023-04-11T01:46:05.700Z,80.20
2023-04-11T01:48:36.985Z,81.70
2023-04-11T01:51:07.272Z,82.00
2023-04-11T01:53:34.804Z,82.50
2023-04-11T01:56:02.299Z,82.50
2023-04-11T01:58:30.043Z,82.60
2023-04-11T02:00:58.011Z,82.50
2023-04-11T02:03:25.631Z,82.20
2023-04-11T02:05:53.447Z,82.30
2023-04-11T02:08:20.984Z,82.50
2023-04-11T02:10:48.795Z,82.60
2023-04-11T02:13:16.366Z,83.00
2023-04-11T02:15:43.947Z,82.80
2023-04-11T02:18:11.679Z,82.40
2023-04-11T02:20:40.603Z,82.90
2023-04-11T02:23:08.052Z,80.30
2023-04-11T02:25:35.651Z,81.20
2023-04-11T02:28:08.018Z,82.30
2023-04-11T02:30:35.942Z,83.20
2023-04-11T02:33:04.113Z,83.70
2023-04-11T02:35:31.666Z,84.10
2023-04-11T02:38:01.006Z,84.70
2023-04-11T02:40:30.628Z,84.60
2023-04-11T02:42:58.084Z,85.00
2023-04-11T02:45:25.525Z,85.50
2023-04-11T02:47:53.402Z,85.70
2023-04-11T02:50:21.082Z,86.10
2023-04-11T02:52:51.695Z,86.80
2023-04-11T02:55:24.146Z,87.30
2023-04-11T02:57:59.558Z,87.30
2023-04-11T03:00:27.083Z,87.10
2023-04-11T03:03:02.708Z,87.50
2023-04-11T03:05:35.249Z,87.70
2023-04-11T03:08:03.605Z,87.50
2023-04-11T03:10:32.699Z,88.30
2023-04-11T03:13:01.944Z,88.00
2023-04-11T03:15:32.368Z,88.40
2023-04-11T03:18:04.491Z,88.10
2023-04-11T03:20:33.335Z,88.20
2023-04-11T03:23:01.024Z,88.20
2023-04-11T03:25:29.060Z,87.70
2023-04-11T03:27:57.135Z,87.60
2023-04-11T03:30:24.711Z,87.50
2023-04-11T03:32:53.128Z,87.30
2023-04-11T03:35:21.447Z,86.90
2023-04-11T03:37:50.857Z,87.30
2023-04-11T03:40:19.738Z,87.60
2023-04-11T03:42:52.743Z,87.50
2023-04-11T03:45:25.221Z,87.70
2023-04-11T03:47:54.653Z,87.50
2023-04-11T03:50:26.200Z,87.70
2023-04-11T03:52:58.803Z,87.50
2023-04-11T03:55:26.673Z,88.00
2023-04-11T03:57:56.695Z,87.70
2023-04-11T04:00:24.430Z,88.10
2023-04-11T04:03:04.315Z,87.90
2023-04-11T04:05:32.770Z,88.20
2023-04-11T04:08:00.961Z,88.10
2023-04-11T04:10:47.095Z,87.90
2023-04-11T04:13:15.328Z,88.70
2023-04-11T04:16:03.846Z,88.60
2023-04-11T04:18:33.231Z,88.60
2023-04-11T04:21:01.565Z,88.20
2023-04-11T04:23:32.456Z,88.20
2023-04-11T04:26:25.094Z,88.70
2023-04-11T04:29:12.798Z,88.90
2023-04-11T04:31:52.968Z,89.10
2023-04-11T04:34:29.191Z,89.40
2023-04-11T04:36:59.739Z,89.60
2023-04-11T04:39:38.209Z,89.70
2023-04-11T04:42:07.291Z,90.00
2023-04-11T04:44:39.112Z,89.20
2023-04-11T04:47:15.536Z,90.00
2023-04-11T04:49:44.061Z,89.80
2023-04-11T04:52:13.349Z,90.00
2023-04-11T04:54:41.005Z,90.10
2023-04-11T04:57:08.650Z,90.10
2023-04-11T04:59:36.269Z,90.00
2023-04-11T05:02:10.772Z,90.00
2023-04-11T05:04:38.746Z,90.20
2023-04-11T05:07:06.440Z,90.40
2023-04-11T06:15:50.422Z,85.90
2023-04-11T06:24:59.643Z,82.40
2023-04-11T06:27:33.900Z,81.20
2023-04-11T07:31:45.119Z,59.00
2023-04-11T07:34:12.805Z,56.70
2023-04-11T07:36:41.700Z,56.00
2023-04-11T07:39:12.084Z,56.20
2023-04-11T07:41:39.528Z,54.40
2023-04-11T07:44:07.547Z,53.00
2023-04-11T07:46:35.443Z,52.80
2023-04-11T07:49:02.778Z,52.90
2023-04-11T07:51:31.196Z,49.80
2023-04-11T07:53:58.678Z,49.10
2023-04-11T07:56:26.654Z,48.90
2023-04-11T07:58:54.259Z,48.10
2023-04-11T08:01:23.897Z,46.70
2023-04-11T08:03:56.024Z,47.60
2023-04-11T08:06:23.962Z,46.90
2023-04-11T08:08:51.682Z,45.20
2023-04-11T08:11:21.725Z,46.40
2023-04-11T08:13:49.991Z,46.00
2023-04-11T08:16:17.422Z,45.50
2023-04-11T08:18:45.737Z,45.40
2023-04-11T08:21:13.370Z,45.50
2023-04-11T08:23:42.809Z,46.10
2023-04-11T08:26:11.868Z,46.10
2023-04-11T08:28:42.635Z,45.10
2023-04-11T08:31:12.589Z,45.10
2023-04-11T08:33:40.384Z,46.50
2023-04-11T08:36:10.693Z,47.10
2023-04-11T08:38:40.699Z,47.00
2023-04-11T08:41:08.471Z,46.60
2023-04-11T08:43:36.967Z,47.00
2023-04-11T08:46:05.604Z,46.60
2023-04-11T08:48:33.802Z,47.10
2023-04-11T08:51:01.481Z,47.40
2023-04-11T08:53:30.475Z,47.50
2023-04-11T09:44:14.089Z,50.70
2023-04-11T09:49:48.784Z,51.20
2023-04-11T09:52:21.330Z,50.50
2023-04-11T09:54:52.300Z,50.40
2023-04-11T14:20:58.270Z,41.60
2023-04-11T14:23:26.677Z,40.80
2023-04-11T14:25:54.191Z,41.30
2023-04-11T14:28:21.953Z,41.00
2023-04-11T14:30:49.441Z,40.50
2023-04-11T14:33:16.902Z,38.40
2023-04-11T14:35:47.029Z,39.00
2023-04-11T14:38:15.829Z,39.80
2023-04-11T14:40:44.406Z,40.10
2023-04-11T14:43:11.947Z,39.40
2023-04-11T14:45:39.536Z,39.90
2023-04-11T14:48:07.097Z,38.50
2023-04-11T14:50:34.793Z,38.60
2023-04-11T14:53:03.030Z,39.30
2023-04-11T14:55:30.795Z,40.80
2023-04-11T14:57:58.480Z,40.90
2023-04-11T15:00:27.085Z,41.30
2023-04-11T15:02:57.316Z,41.40
2023-04-11T15:05:26.871Z,41.20
2023-04-11T15:07:54.582Z,41.70
2023-04-11T15:10:24.435Z,41.40
2023-04-11T15:12:53.121Z,41.70
2023-04-11T15:15:20.604Z,41.10
2023-04-11T15:17:49.991Z,41.60
2023-04-11T15:20:17.641Z,41.40
2023-04-11T15:22:46.228Z,41.30
2023-04-11T15:25:16.148Z,43.10
2023-04-11T15:27:44.040Z,44.30
2023-04-11T15:30:12.324Z,44.10
2023-04-11T15:32:43.797Z,43.30
2023-04-11T15:35:12.306Z,44.20
2023-04-11T15:37:41.131Z,44.70
2023-04-11T15:40:12.561Z,44.40
2023-04-11T15:42:44.079Z,41.20
2023-04-11T15:45:12.467Z,41.90
2023-04-11T15:47:41.117Z,42.00
2023-04-11T15:50:09.463Z,43.30
2023-04-11T15:52:37.218Z,42.00
2023-04-11T15:55:05.404Z,41.50
2023-04-11T15:57:33.055Z,42.60
2023-04-11T16:00:01.282Z,44.00
2023-04-11T16:02:45.378Z,44.30
2023-04-11T16:05:14.398Z,43.70
2023-04-11T16:07:43.615Z,44.40
2023-04-11T16:10:11.373Z,44.10
2023-04-11T16:12:39.129Z,43.90
2023-04-11T16:15:07.324Z,43.70
2023-04-11T16:17:34.740Z,41.70
2023-04-11T16:20:06.366Z,42.20
2023-04-11T16:22:35.345Z,42.00
2023-04-11T16:25:06.935Z,41.60
2023-04-11T16:27:34.358Z,40.80
2023-04-11T16:30:05.076Z,41.00
2023-04-11T16:32:33.234Z,41.20
2023-04-11T16:35:01.218Z,41.20
2023-04-11T16:37:29.089Z,40.40
2023-04-11T16:39:58.011Z,40.00
2023-04-11T16:42:25.764Z,40.50
2023-04-11T16:44:53.681Z,42.10
2023-04-11T16:47:26.191Z,41.10
2023-04-11T16:49:53.829Z,42.00
2023-04-11T16:52:21.467Z,40.80
2023-04-11T16:54:49.056Z,40.80
2023-04-11T16:57:16.618Z,40.70
2023-04-11T16:59:44.487Z,40.80
2023-04-11T17:02:11.968Z,40.90
2023-04-11T17:04:39.531Z,41.70
2023-04-11T17:07:07.047Z,41.10
2023-04-11T17:09:34.550Z,40.90
2023-04-11T17:12:03.352Z,40.50
2023-04-11T17:14:33.914Z,41.10
2023-04-11T17:17:04.257Z,41.30
2023-04-11T17:19:32.193Z,41.20
2023-04-11T17:22:00.323Z,41.30
2023-04-11T17:24:29.227Z,42.20
2023-04-11T17:26:57.304Z,42.10
2023-04-11T17:29:25.213Z,41.90
2023-04-11T17:31:53.105Z,42.20
2023-04-11T17:34:20.760Z,42.30
2023-04-11T17:36:48.611Z,43.40
2023-04-11T17:39:19.770Z,43.00
2023-04-11T17:41:48.468Z,43.70
2023-04-11T17:44:16.284Z,44.30
2023-04-11T17:46:44.262Z,44.50
2023-04-11T17:49:12.066Z,44.50
2023-04-11T17:51:48.656Z,44.60
2023-04-11T17:54:17.145Z,44.80
2023-04-11T17:56:45.465Z,44.70
2023-04-11T17:59:13.657Z,45.70
2023-04-11T18:01:42.811Z,45.90
2023-04-11T18:04:12.266Z,45.80
2023-04-11T18:06:46.089Z,45.50
2023-04-11T18:09:15.997Z,44.90
2023-04-11T18:11:44.169Z,45.40
2023-04-11T18:14:12.242Z,46.40
2023-04-11T18:23:10.576Z,46.50
2023-04-11T20:16:43.495Z,52.20
2023-04-11T20:20:58.583Z,52.50
2023-04-11T22:03:31.964Z,53.40
2023-04-11T22:06:01.069Z,52.30
2023-04-11T22:12:45.960Z,52.50
2023-04-11T22:15:18.725Z,53.20
2023-04-11T22:18:14.469Z,53.00
2023-04-11T22:20:46.240Z,53.00
2023-04-11T22:23:19.245Z,53.70
2023-04-11T22:25:58.099Z,53.10
2023-04-11T22:28:34.390Z,53.90
2023-04-11T22:31:03.528Z,53.60
2023-04-11T22:33:33.438Z,53.80
2023-04-11T22:36:02.331Z,54.70
2023-04-11T22:38:32.823Z,54.10
2023-04-11T22:41:02.197Z,55.20
2023-04-11T22:43:33.579Z,55.40
2023-04-11T22:46:02.725Z,56.10
2023-04-11T22:48:31.673Z,56.00
2023-04-11T22:51:02.918Z,56.30
2023-04-11T22:53:32.478Z,56.80
2023-04-11T22:56:03.025Z,57.30
2023-04-11T22:58:33.262Z,57.20
2023-04-11T23:01:16.558Z,57.40
2023-04-11T23:03:53.306Z,57.90
2023-04-11T23:06:23.975Z,58.60
2023-04-11T23:08:54.123Z,58.70
2023-04-11T23:11:25.351Z,59.00
2023-04-11T23:13:54.909Z,58.90
2023-04-11T23:16:26.219Z,58.90
2023-04-11T23:18:56.368Z,58.90
2023-04-11T23:21:27.098Z,59.10
2023-04-11T23:24:00.022Z,59.60
2023-04-11T23:26:29.997Z,59.40
2023-04-11T23:28:58.255Z,59.00
2023-04-11T23:36:02.186Z,60.10
2023-04-11T23:38:32.169Z,61.70
2023-04-11T23:41:00.786Z,63.60
2023-04-11T23:43:30.420Z,63.70
2023-04-11T23:46:02.003Z,63.80
2023-04-11T23:48:30.816Z,63.20
2023-04-11T23:51:33.675Z,63.80
2023-04-11T23:54:03.944Z,62.60
